Time;durP1;ratioP1;P1;durP2;ratioP2;P2;SDS_P1;SDS_P2;PMS_P1;PMS_P2;Temp;Humidity;BMP_temperature;BMP_pressure;BME280_temperature;BME280_humidity;BME280_pressure;Samples;Min_cycle;Max_cycle;Signal;HPM_P1;HPM_P2
2021/09/30 00:00:41;;;;;;;4.03;1.77;;;11.60;50.00;;;;;;5053365;28;21081;-88
2021/09/30 00:03:10;;;;;;;2.97;1.80;;;11.60;50.00;;;;;;5053509;28;20469;-88
2021/09/30 00:05:38;;;;;;;2.80;1.60;;;11.50;50.00;;;;;;5053433;28;20414;-87
2021/09/30 00:08:07;;;;;;;4.60;1.73;;;11.50;50.60;;;;;;5053252;28;20427;-88
2021/09/30 00:10:34;;;;;;;1.77;1.67;;;11.40;50.50;;;;;;5053162;28;20418;-90
2021/09/30 00:13:14;;;;;;;1.73;1.67;;;11.40;51.00;;;;;;5053085;28;20947;-87
2021/09/30 00:49:03;;;;;;;2.03;1.80;;;11.20;51.20;;;;;;5044419;28;20421;-88
2021/09/30 01:20:13;;;;;;;2.40;1.87;;;11.20;50.30;;;;;;5053480;28;20429;-86
2021/09/30 02:28:50;;;;;;;3.23;1.83;;;10.60;52.60;;;;;;5052222;28;20465;-87
2021/09/30 02:58:47;;;;;;;2.27;2.07;;;10.40;53.40;;;;;;5035212;28;20414;-87
2021/09/30 03:01:21;;;;;;;1.90;1.80;;;10.40;52.70;;;;;;5029026;28;20424;-87
2021/09/30 03:03:48;;;;;;;2.10;1.97;;;10.30;53.10;;;;;;5014735;28;20485;-87
2021/09/30 03:06:15;;;;;;;1.90;1.80;;;10.30;54.00;;;;;;5014544;28;20783;-87
2021/09/30 03:08:45;;;;;;;2.80;2.07;;;10.40;53.80;;;;;;5014727;28;20899;-87
2021/09/30 03:11:13;;;;;;;2.47;2.27;;;10.40;53.20;;;;;;5014539;28;20424;-87
2021/09/30 03:13:40;;;;;;;2.00;1.90;;;10.40;52.40;;;;;;5014731;28;20427;-87
2021/09/30 03:16:16;;;;;;;2.93;2.70;;;10.30;53.30;;;;;;5018474;28;20458;-86
2021/09/30 03:23:57;;;;;;;2.80;2.60;;;10.40;52.80;;;;;;5035600;28;20473;-87
2021/09/30 03:26:25;;;;;;;2.50;2.30;;;10.30;52.70;;;;;;5033949;28;20920;-87
2021/09/30 03:28:52;;;;;;;3.67;2.63;;;10.40;52.60;;;;;;5033947;28;20422;-86
2021/09/30 03:31:18;;;;;;;2.10;2.00;;;10.30;52.20;;;;;;5033913;28;20415;-87
2021/09/30 03:33:46;;;;;;;2.70;2.40;;;10.40;52.40;;;;;;5034070;28;20426;-87
2021/09/30 03:36:12;;;;;;;4.73;2.17;;;10.40;52.60;;;;;;5033824;28;20427;-87
2021/09/30 03:38:38;;;;;;;2.13;2.03;;;10.40;51.70;;;;;;5033840;28;20510;-87
2021/09/30 03:41:04;;;;;;;2.53;2.03;;;10.30;52.20;;;;;;5034981;28;20569;-86
2021/09/30 03:43:30;;;;;;;2.37;2.20;;;10.30;51.70;;;;;;5033726;28;20458;-88
2021/09/30 03:45:56;;;;;;;2.37;2.20;;;10.30;52.70;;;;;;5026502;28;20416;-86
2021/09/30 03:48:22;;;;;;;2.43;2.23;;;10.30;52.20;;;;;;5014380;28;20459;-86
2021/09/30 03:51:35;;;;;;;3.03;2.40;;;10.40;52.90;;;;;;5014508;28;20178;-86
2021/09/30 03:54:01;;;;;;;3.03;2.00;;;10.30;51.70;;;;;;5010105;28;20439;-87
2021/09/30 03:56:36;;;;;;;5.13;2.23;;;10.20;51.60;;;;;;5014602;28;20414;-90
2021/09/30 03:59:19;;;;;;;2.40;2.23;;;10.20;52.70;;;;;;5014806;28;20849;-88
2021/09/30 04:01:48;;;;;;;2.23;2.00;;;10.20;52.40;;;;;;5014328;28;20478;-85
2021/09/30 04:04:14;;;;;;;2.33;2.23;;;10.20;52.80;;;;;;5014201;28;20474;-87
2021/09/30 04:06:40;;;;;;;3.13;2.10;;;10.20;52.60;;;;;;5013646;28;20999;-86
2021/09/30 04:09:06;;;;;;;2.07;1.97;;;10.00;52.90;;;;;;5013028;28;20980;-89
2021/09/30 04:11:32;;;;;;;2.70;2.60;;;10.10;52.50;;;;;;5014616;28;20520;-90
2021/09/30 04:13:57;;;;;;;2.70;2.60;;;10.10;52.90;;;;;;5014446;28;20268;-86
2021/09/30 04:16:26;;;;;;;3.13;2.10;;;10.10;52.90;;;;;;5014122;28;20177;-89
2021/09/30 04:18:52;;;;;;;2.57;2.47;;;10.10;52.50;;;;;;5013646;28;20626;-91
2021/09/30 04:21:18;;;;;;;2.27;2.17;;;10.10;53.40;;;;;;5013925;28;20424;-89
2021/09/30 04:23:44;;;;;;;2.53;2.40;;;10.00;52.80;;;;;;5013866;28;20456;-89
2021/09/30 04:26:09;;;;;;;2.40;2.20;;;10.10;52.50;;;;;;5013870;28;20193;-89
2021/09/30 04:28:35;;;;;;;3.10;2.23;;;10.10;53.00;;;;;;5013844;28;20177;-88
2021/09/30 04:31:01;;;;;;;2.40;2.10;;;10.10;52.90;;;;;;5013911;28;20200;-90
2021/09/30 04:33:26;;;;;;;2.20;1.90;;;10.00;52.50;;;;;;5013687;28;20271;-86
2021/09/30 04:35:52;;;;;;;2.33;2.20;;;10.00;53.30;;;;;;5013870;28;20185;-86
2021/09/30 04:38:18;;;;;;;2.47;2.27;;;10.10;53.20;;;;;;5013414;28;20621;-89
2021/09/30 04:40:44;;;;;;;2.40;2.30;;;10.00;53.20;;;;;;5013551;28;20272;-86
2021/09/30 04:43:09;;;;;;;3.83;2.40;;;10.10;53.80;;;;;;5013444;28;20209;-87
2021/09/30 04:45:35;;;;;;;3.10;2.17;;;10.10;53.50;;;;;;5013537;28;20209;-88
2021/09/30 04:48:01;;;;;;;2.23;2.13;;;10.10;53.40;;;;;;5013302;28;20181;-87
2021/09/30 04:50:27;;;;;;;2.73;2.40;;;10.10;53.30;;;;;;5013427;28;20416;-88
2021/09/30 04:52:57;;;;;;;3.03;2.63;;;10.00;53.00;;;;;;5013370;28;20287;-87
2021/09/30 04:55:23;;;;;;;2.70;2.40;;;10.00;52.80;;;;;;5013294;28;20224;-88
2021/09/30 04:57:49;;;;;;;2.60;2.40;;;10.00;53.20;;;;;;5012996;28;20655;-88
2021/09/30 05:00:15;;;;;;;2.60;2.30;;;9.90;54.50;;;;;;5008837;28;20221;-89
2021/09/30 05:02:40;;;;;;;4.47;2.67;;;9.90;54.40;;;;;;5009691;28;20221;-89
2021/09/30 05:05:07;;;;;;;4.97;2.60;;;9.90;54.30;;;;;;5012872;28;20177;-89
2021/09/30 05:07:32;;;;;;;5.20;2.67;;;9.90;54.20;;;;;;5018786;28;20323;-83
2021/09/30 05:10:01;;;;;;;4.10;2.80;;;9.90;54.30;;;;;;5006973;28;20953;-82
2021/09/30 05:12:26;;;;;;;3.20;2.67;;;9.80;54.90;;;;;;5018142;28;20323;-82
2021/09/30 05:14:52;;;;;;;3.87;3.00;;;9.70;54.90;;;;;;5017759;28;20530;-83
2021/09/30 05:17:18;;;;;;;2.60;2.20;;;9.70;55.10;;;;;;5017616;28;20228;-83
2021/09/30 05:19:43;;;;;;;2.60;2.40;;;9.70;55.60;;;;;;5017121;28;20230;-82
2021/09/30 05:22:09;;;;;;;2.43;2.23;;;9.70;55.30;;;;;;5016100;28;20228;-83
2021/09/30 05:24:35;;;;;;;3.10;2.80;;;9.80;55.70;;;;;;5017130;28;20689;-83
2021/09/30 05:27:01;;;;;;;4.00;2.80;;;9.70;55.40;;;;;;5032231;28;20267;-83
2021/09/30 05:29:27;;;;;;;2.30;2.20;;;9.70;55.90;;;;;;5016828;28;20494;-83
2021/09/30 05:31:53;;;;;;;4.17;2.53;;;9.70;55.10;;;;;;5016833;28;20220;-83
2021/09/30 05:34:18;;;;;;;2.40;2.30;;;9.70;55.50;;;;;;5017813;28;20232;-83
2021/09/30 05:36:44;;;;;;;3.67;2.50;;;9.80;55.40;;;;;;5018915;28;20274;-83
2021/09/30 05:39:10;;;;;;;2.77;2.53;;;9.80;54.90;;;;;;5017563;28;20294;-83
2021/09/30 05:41:35;;;;;;;8.37;3.00;;;9.80;55.60;;;;;;5016874;28;20225;-83
2021/09/30 05:44:09;;;;;;;3.60;2.77;;;9.80;55.30;;;;;;5015917;28;21128;-83
2021/09/30 05:46:47;;;;;;;6.30;5.70;;;9.80;54.90;;;;;;5014862;28;20239;-83
2021/09/30 05:49:13;;;;;;;21.27;9.10;;;9.70;54.20;;;;;;5017279;28;20946;-81
2021/09/30 05:51:39;;;;;;;8.70;3.83;;;9.70;54.80;;;;;;5017547;28;20797;-81
2021/09/30 05:54:05;;;;;;;3.00;2.70;;;9.60;54.90;;;;;;5013559;28;20251;-82
2021/09/30 05:56:30;;;;;;;2.43;2.23;;;9.60;55.20;;;;;;5006967;28;20471;-82
2021/09/30 05:58:57;;;;;;;2.70;2.50;;;9.60;55.00;;;;;;5005475;28;20228;-81
2021/09/30 06:14:23;;;;;;;3.50;3.20;;;9.70;55.60;;;;;;5017929;28;20542;-82
2021/09/30 06:16:51;;;;;;;3.83;3.00;;;9.60;55.20;;;;;;5017831;28;20224;-81
2021/09/30 06:19:21;;;;;;;3.10;2.80;;;9.60;55.50;;;;;;5015469;28;20509;-81
2021/09/30 06:21:51;;;;;;;2.53;2.33;;;9.60;55.40;;;;;;5016323;28;20447;-80
2021/09/30 06:24:20;;;;;;;2.73;2.53;;;9.70;55.80;;;;;;5017261;28;20991;-82
2021/09/30 06:26:46;;;;;;;5.87;3.07;;;9.90;55.80;;;;;;5015159;28;20458;-82
2021/09/30 06:29:13;;;;;;;2.43;2.23;;;9.90;54.50;;;;;;5016390;28;20535;-82
2021/09/30 06:31:39;;;;;;;3.03;2.60;;;10.00;53.20;;;;;;5016100;28;20466;-81
2021/09/30 06:34:05;;;;;;;2.57;2.37;;;10.00;53.20;;;;;;5016419;28;20814;-83
2021/09/30 06:36:30;;;;;;;2.80;2.60;;;10.10;53.20;;;;;;5016809;28;20451;-81
2021/09/30 06:38:56;;;;;;;4.60;2.40;;;10.20;53.50;;;;;;5017488;28;20224;-81
2021/09/30 06:41:22;;;;;;;6.53;3.00;;;10.20;53.50;;;;;;5016957;28;20224;-82
2021/09/30 06:43:48;;;;;;;3.80;2.30;;;10.30;52.80;;;;;;5017877;28;20486;-82
2021/09/30 06:46:13;;;;;;;2.80;2.60;;;10.40;52.80;;;;;;5016564;28;20318;-82
2021/09/30 06:48:39;;;;;;;2.20;2.07;;;10.40;52.20;;;;;;5016363;28;20224;-81
2021/09/30 06:51:05;;;;;;;4.57;2.70;;;10.40;51.70;;;;;;5015848;28;20230;-81
2021/09/30 06:53:31;;;;;;;4.53;2.60;;;10.50;52.10;;;;;;5017977;28;20232;-82
2021/09/30 06:56:01;;;;;;;6.30;2.60;;;10.50;51.80;;;;;;5016609;28;20530;-82
2021/09/30 06:58:27;;;;;;;5.40;2.27;;;10.60;51.90;;;;;;5009111;28;20227;-80
2021/09/30 07:00:56;;;;;;;3.20;2.43;;;10.70;50.80;;;;;;5016469;28;20541;-80
2021/09/30 07:03:23;;;;;;;2.10;2.00;;;10.70;50.70;;;;;;5016139;28;20243;-81
2021/09/30 07:05:49;;;;;;;3.97;2.93;;;10.80;51.00;;;;;;5017150;28;20829;-82
2021/09/30 07:08:15;;;;;;;4.80;2.67;;;10.80;51.00;;;;;;5018190;28;20455;-82
2021/09/30 07:10:42;;;;;;;2.50;2.30;;;10.90;50.30;;;;;;5018175;28;20228;-82
2021/09/30 07:13:07;;;;;;;1.97;1.70;;;11.00;49.70;;;;;;5017839;28;20463;-82
2021/09/30 07:15:33;;;;;;;2.63;2.20;;;11.00;49.80;;;;;;5018528;28;20513;-82
2021/09/30 07:17:59;;;;;;;3.70;2.40;;;11.00;50.10;;;;;;5017835;28;20278;-82
2021/09/30 07:20:24;;;;;;;3.23;2.93;;;11.10;49.80;;;;;;5017878;28;20338;-82
2021/09/30 07:22:50;;;;;;;2.97;2.03;;;11.20;50.00;;;;;;5017452;28;20258;-83
2021/09/30 07:25:16;;;;;;;5.40;2.80;;;11.30;49.10;;;;;;5017455;28;20224;-82
2021/09/30 07:27:41;;;;;;;2.70;2.03;;;11.30;48.00;;;;;;5013294;28;20309;-85
2021/09/30 07:30:07;;;;;;;1.90;1.80;;;11.40;49.10;;;;;;5015380;28;20224;-83
2021/09/30 07:32:33;;;;;;;3.43;2.07;;;11.50;47.20;;;;;;5017971;28;20224;-85
2021/09/30 07:34:59;;;;;;;1.87;1.70;;;11.50;47.10;;;;;;5016177;28;20554;-84
2021/09/30 07:37:25;;;;;;;2.70;2.50;;;11.50;46.90;;;;;;5016353;28;20688;-86
2021/09/30 07:39:50;;;;;;;2.13;1.93;;;11.50;48.30;;;;;;5016202;28;20316;-85
2021/09/30 07:42:16;;;;;;;2.23;2.10;;;11.60;47.40;;;;;;5016062;28;21086;-85
2021/09/30 07:44:42;;;;;;;2.37;2.17;;;11.60;47.20;;;;;;5018656;28;20689;-84
2021/09/30 07:47:07;;;;;;;2.60;2.40;;;11.70;47.20;;;;;;5021104;28;20224;-85
2021/09/30 07:49:33;;;;;;;2.97;2.30;;;11.70;46.40;;;;;;5019536;28;20314;-85
2021/09/30 07:51:59;;;;;;;2.07;1.97;;;11.70;46.30;;;;;;5019205;28;20243;-85
2021/09/30 07:54:25;;;;;;;2.60;2.20;;;11.80;45.70;;;;;;5019899;28;20451;-85
2021/09/30 07:56:51;;;;;;;4.03;2.93;;;11.90;45.30;;;;;;5018626;28;20462;-85
2021/09/30 07:59:17;;;;;;;2.70;2.40;;;11.90;46.20;;;;;;5019885;28;20455;-84
2021/09/30 08:01:42;;;;;;;2.50;2.30;;;11.90;45.90;;;;;;5019632;28;20236;-84
2021/09/30 08:04:08;;;;;;;2.23;2.13;;;12.00;45.60;;;;;;5019291;28;20251;-84
2021/09/30 08:06:38;;;;;;;2.20;2.00;;;12.10;44.70;;;;;;5017818;28;20437;-83
2021/09/30 08:09:04;;;;;;;3.03;1.80;;;12.10;45.50;;;;;;5019022;28;20625;-83
2021/09/30 08:11:29;;;;;;;2.40;2.20;;;12.10;45.20;;;;;;5018918;28;20466;-83
2021/09/30 08:13:55;;;;;;;2.27;1.93;;;12.20;44.20;;;;;;5019583;28;20224;-89
2021/09/30 08:16:23;;;;;;;2.20;2.00;;;12.30;45.00;;;;;;5020037;28;20224;-89
2021/09/30 08:18:49;;;;;;;4.07;1.87;;;12.30;44.10;;;;;;5022010;28;20234;-90
2021/09/30 08:21:15;;;;;;;2.10;1.90;;;12.30;43.00;;;;;;5022893;28;20474;-90
2021/09/30 08:23:42;;;;;;;1.80;1.70;;;12.40;43.20;;;;;;5021153;28;20459;-90
2021/09/30 08:26:08;;;;;;;6.20;2.43;;;12.40;42.60;;;;;;5021326;28;20224;-89
2021/09/30 08:28:36;;;;;;;3.47;1.73;;;12.40;42.40;;;;;;5020793;28;20512;-89
2021/09/30 08:31:03;;;;;;;2.00;1.70;;;12.40;41.60;;;;;;5021624;28;20942;-90
2021/09/30 08:33:28;;;;;;;1.60;1.50;;;12.50;40.40;;;;;;5020669;28;20502;-89
2021/09/30 08:35:54;;;;;;;7.20;1.90;;;12.50;41.50;;;;;;5019727;28;20536;-90
2021/09/30 08:38:20;;;;;;;1.93;1.70;;;12.50;42.20;;;;;;5020095;28;20217;-88
2021/09/30 08:40:47;;;;;;;3.90;1.77;;;12.50;40.90;;;;;;5019890;28;20524;-91
2021/09/30 08:43:13;;;;;;;2.37;2.20;;;12.60;41.50;;;;;;5019360;28;20232;-89
2021/09/30 08:45:40;;;;;;;3.67;1.70;;;12.70;41.00;;;;;;5019294;28;20451;-89
2021/09/30 08:48:07;;;;;;;4.57;1.70;;;12.80;40.40;;;;;;5019264;28;20440;-89
2021/09/30 08:50:38;;;;;;;2.77;1.80;;;12.90;39.00;;;;;;5019723;28;20450;-90
2021/09/30 08:53:11;;;;;;;4.60;1.70;;;13.00;39.80;;;;;;5019960;28;20459;-90
2021/09/30 08:55:37;;;;;;;5.87;1.80;;;13.10;38.40;;;;;;5018949;28;20454;-89
2021/09/30 08:58:08;;;;;;;11.53;4.17;;;13.10;38.80;;;;;;5019165;28;20450;-89
2021/09/30 09:00:36;;;;;;;2.00;1.90;;;13.20;39.70;;;;;;5020438;28;20448;-89
2021/09/30 09:03:02;;;;;;;2.30;1.80;;;13.10;38.70;;;;;;5019732;28;20477;-88
2021/09/30 09:05:28;;;;;;;2.17;1.70;;;13.10;39.00;;;;;;5019724;28;20447;-90
2021/09/30 09:07:55;;;;;;;2.17;1.70;;;13.10;39.60;;;;;;5018506;28;20220;-90
2021/09/30 09:10:23;;;;;;;2.70;1.80;;;13.10;38.40;;;;;;5019990;28;20443;-89
2021/09/30 09:13:04;;;;;;;2.43;1.70;;;13.20;37.90;;;;;;5019497;28;21052;-90
2021/09/30 09:15:37;;;;;;;1.90;1.70;;;13.30;36.50;;;;;;5019418;28;20458;-88
2021/09/30 09:18:17;;;;;;;3.97;1.37;;;13.30;37.40;;;;;;5018089;28;20818;-89
2021/09/30 09:20:46;;;;;;;1.60;1.27;;;13.40;35.90;;;;;;5019107;28;20451;-89
2021/09/30 09:23:11;;;;;;;1.47;1.20;;;13.50;36.00;;;;;;5019561;28;20963;-90
2021/09/30 09:25:37;;;;;;;5.13;2.03;;;13.50;33.60;;;;;;5016862;28;20542;-88
2021/09/30 09:28:03;;;;;;;2.03;1.60;;;13.40;33.70;;;;;;5018098;28;20605;-90
2021/09/30 09:30:47;;;;;;;2.50;2.30;;;13.40;33.60;;;;;;5018758;28;20457;-89
2021/09/30 09:33:21;;;;;;;1.53;1.20;;;13.40;31.90;;;;;;5019416;28;20481;-89
2021/09/30 09:35:51;;;;;;;1.70;1.30;;;13.40;28.90;;;;;;5018325;28;20454;-89
2021/09/30 09:38:17;;;;;;;2.17;1.50;;;13.50;29.80;;;;;;5018046;28;20451;-90
2021/09/30 09:40:43;;;;;;;1.30;1.30;;;13.50;31.30;;;;;;5018488;28;20448;-89
2021/09/30 09:43:35;;;;;;;1.67;1.30;;;13.40;31.70;;;;;;5018276;28;20478;-90
2021/09/30 09:46:05;;;;;;;2.00;1.80;;;13.40;34.10;;;;;;5019055;28;20641;-91
2021/09/30 09:48:33;;;;;;;1.40;1.30;;;13.60;32.80;;;;;;5019512;28;20801;-89
2021/09/30 09:50:59;;;;;;;2.63;1.53;;;13.60;31.50;;;;;;5020463;28;20964;-92
2021/09/30 09:53:30;;;;;;;1.40;1.30;;;13.70;30.10;;;;;;5020490;28;20462;-91
2021/09/30 09:56:14;;;;;;;1.77;1.67;;;13.60;30.50;;;;;;5017636;28;20451;-87
2021/09/30 09:58:44;;;;;;;3.30;1.93;;;13.50;31.10;;;;;;5017976;28;20458;-89
2021/09/30 10:01:09;;;;;;;1.23;1.20;;;13.60;30.40;;;;;;5018861;28;20447;-89
2021/09/30 10:03:35;;;;;;;1.30;1.20;;;13.60;30.60;;;;;;5018722;28;22999;-90
2021/09/30 10:06:03;;;;;;;2.00;1.40;;;13.60;32.20;;;;;;5018293;28;20715;-89
2021/09/30 10:08:31;;;;;;;3.07;1.40;;;13.90;29.90;;;;;;5017938;28;20486;-89
2021/09/30 10:10:57;;;;;;;1.90;1.60;;;14.00;30.20;;;;;;5017401;28;20467;-89
2021/09/30 10:13:24;;;;;;;1.33;1.23;;;14.30;30.20;;;;;;5017549;28;20459;-89
2021/09/30 10:15:56;;;;;;;2.00;1.20;;;14.40;30.00;;;;;;5017035;28;20455;-90
2021/09/30 10:18:24;;;;;;;2.00;1.80;;;14.50;30.60;;;;;;5017555;28;20467;-88
2021/09/30 10:20:50;;;;;;;1.67;1.30;;;14.60;29.90;;;;;;5019376;28;20459;-90
2021/09/30 10:23:28;;;;;;;2.60;1.50;;;14.60;28.30;;;;;;5020352;28;20633;-89
2021/09/30 10:25:58;;;;;;;2.40;1.33;;;14.70;27.00;;;;;;5017872;28;20496;-90
2021/09/30 10:28:24;;;;;;;2.20;1.40;;;14.60;28.70;;;;;;5017220;28;20496;-89
2021/09/30 10:30:52;;;;;;;2.93;1.23;;;14.60;27.90;;;;;;5018146;28;21058;-89
2021/09/30 10:33:40;;;;;;;3.70;1.40;;;14.60;27.00;;;;;;5017927;28;20451;-89
2021/09/30 10:36:36;;;;;;;1.80;1.20;;;14.60;25.40;;;;;;5018228;28;20540;-89
2021/09/30 10:39:23;;;;;;;4.37;1.50;;;14.60;25.00;;;;;;5017104;28;20447;-90
2021/09/30 10:41:51;;;;;;;0.90;0.90;;;14.40;23.90;;;;;;5017495;28;20447;-89
2021/09/30 10:44:23;;;;;;;1.70;1.53;;;14.30;23.90;;;;;;5017302;28;20987;-90
2021/09/30 10:46:57;;;;;;;3.07;1.10;;;14.30;24.60;;;;;;5017888;28;20462;-90
2021/09/30 10:49:36;;;;;;;0.90;0.90;;;14.40;25.50;;;;;;5017343;28;20470;-90
2021/09/30 10:52:25;;;;;;;3.80;2.00;;;14.40;26.10;;;;;;5019550;28;20540;-89
2021/09/30 10:55:06;;;;;;;1.20;1.07;;;14.40;26.20;;;;;;5016797;28;20747;-88
2021/09/30 10:57:43;;;;;;;3.30;3.10;;;14.50;26.20;;;;;;5016565;28;20485;-88
2021/09/30 11:00:18;;;;;;;6.57;4.00;;;14.50;26.20;;;;;;5018257;28;20524;-86
2021/09/30 11:03:02;;;;;;;4.50;2.50;;;14.50;25.90;;;;;;5018146;28;20468;-89
2021/09/30 11:05:30;;;;;;;5.33;2.30;;;14.50;26.20;;;;;;5020053;28;20462;-84
2021/09/30 11:08:27;;;;;;;2.00;1.60;;;14.50;26.20;;;;;;5017812;28;20488;-86
2021/09/30 11:11:06;;;;;;;6.00;2.03;;;14.60;26.30;;;;;;5018894;28;20486;-85
2021/09/30 11:13:38;;;;;;;1.23;1.13;;;14.70;27.00;;;;;;5016666;28;21001;-88
2021/09/30 11:16:14;;;;;;;2.80;1.30;;;14.70;26.10;;;;;;5017480;28;20454;-88
2021/09/30 11:18:49;;;;;;;2.20;1.20;;;14.70;26.40;;;;;;5019686;28;20754;-89
2021/09/30 11:21:34;;;;;;;3.83;1.80;;;14.70;25.90;;;;;;5022217;28;20469;-86
2021/09/30 11:24:01;;;;;;;2.80;1.90;;;14.80;27.20;;;;;;5021715;28;20467;-89
2021/09/30 11:26:29;;;;;;;1.63;1.50;;;14.90;26.50;;;;;;5021008;28;20558;-85
2021/09/30 11:29:15;;;;;;;2.10;1.13;;;14.90;26.80;;;;;;5024264;28;20512;-86
2021/09/30 11:31:41;;;;;;;1.60;1.30;;;14.80;26.40;;;;;;5022596;28;20455;-86
2021/09/30 11:34:16;;;;;;;1.80;1.00;;;14.60;27.50;;;;;;5022999;28;20455;-87
2021/09/30 11:36:42;;;;;;;3.13;1.30;;;14.60;26.30;;;;;;5022332;28;20262;-86
2021/09/30 11:39:09;;;;;;;1.53;1.20;;;14.60;27.50;;;;;;5021404;28;20546;-85
2021/09/30 11:41:37;;;;;;;3.80;1.30;;;14.70;26.00;;;;;;5020164;28;20486;-85
2021/09/30 11:44:04;;;;;;;2.90;1.73;;;14.90;25.60;;;;;;5019815;28;20489;-84
2021/09/30 11:46:39;;;;;;;2.47;1.30;;;14.90;26.50;;;;;;5020438;28;20542;-84
2021/09/30 11:49:06;;;;;;;1.40;1.40;;;14.80;25.20;;;;;;5019665;28;20893;-83
2021/09/30 11:52:05;;;;;;;2.20;1.20;;;14.90;25.70;;;;;;5019865;28;20550;-84
2021/09/30 11:54:35;;;;;;;1.67;1.10;;;14.70;26.10;;;;;;5015969;28;20458;-85
2021/09/30 11:57:02;;;;;;;1.37;1.27;;;14.70;26.40;;;;;;5018765;28;20458;-85
2021/09/30 11:59:30;;;;;;;1.10;1.00;;;14.80;27.20;;;;;;5019190;28;20831;-85
2021/09/30 12:01:58;;;;;;;3.13;1.73;;;14.80;25.40;;;;;;5019985;28;20451;-85
2021/09/30 12:04:30;;;;;;;1.20;1.10;;;14.80;26.40;;;;;;5019721;28;20467;-85
2021/09/30 12:06:57;;;;;;;1.80;1.10;;;14.90;27.70;;;;;;5019642;28;20454;-87
2021/09/30 12:09:23;;;;;;;1.73;1.40;;;15.00;27.60;;;;;;5019641;28;20607;-83
2021/09/30 12:11:59;;;;;;;2.00;1.40;;;14.90;26.80;;;;;;5020070;28;20459;-83
2021/09/30 12:14:34;;;;;;;1.20;1.17;;;14.90;26.20;;;;;;5025282;28;20942;-81
2021/09/30 12:17:05;;;;;;;5.30;1.40;;;14.90;26.50;;;;;;5039715;28;20462;-83
2021/09/30 12:19:40;;;;;;;2.03;1.30;;;14.90;25.60;;;;;;5040363;28;20478;-83
2021/09/30 12:22:19;;;;;;;1.60;1.13;;;14.90;25.60;;;;;;5039617;28;20457;-83
2021/09/30 12:24:58;;;;;;;1.90;1.30;;;14.90;25.70;;;;;;5039399;28;20986;-83
2021/09/30 12:27:29;;;;;;;1.53;1.10;;;15.00;26.00;;;;;;5040338;28;20477;-83
2021/09/30 12:30:01;;;;;;;1.63;1.37;;;15.00;26.60;;;;;;5040912;28;20531;-83
2021/09/30 12:32:33;;;;;;;1.33;1.20;;;15.00;26.60;;;;;;5040921;28;20511;-83
2021/09/30 12:35:01;;;;;;;1.43;1.10;;;15.00;25.50;;;;;;5040171;28;20457;-83
2021/09/30 12:37:28;;;;;;;1.90;1.03;;;15.10;25.20;;;;;;5039624;28;20450;-83
2021/09/30 12:40:06;;;;;;;1.30;1.20;;;15.00;24.80;;;;;;5039745;28;20813;-84
2021/09/30 12:42:32;;;;;;;1.10;1.00;;;15.00;26.10;;;;;;5040086;28;20458;-84
2021/09/30 12:44:58;;;;;;;1.93;1.07;;;14.90;25.50;;;;;;5041287;28;20466;-83
2021/09/30 12:47:42;;;;;;;1.77;1.10;;;14.90;25.10;;;;;;5031629;28;20589;-83
2021/09/30 12:50:10;;;;;;;1.60;1.03;;;14.80;26.50;;;;;;5029656;28;20458;-83
2021/09/30 12:52:40;;;;;;;1.00;0.80;;;15.10;26.70;;;;;;5020833;28;20467;-80
2021/09/30 12:55:17;;;;;;;3.53;1.63;;;15.10;25.80;;;;;;5020022;28;20738;-83
2021/09/30 12:57:43;;;;;;;1.10;1.00;;;15.00;24.90;;;;;;5035584;28;20509;-82
2021/09/30 13:00:10;;;;;;;2.87;1.10;;;15.00;25.90;;;;;;5019480;28;20991;-82
2021/09/30 13:02:37;;;;;;;0.97;0.90;;;15.10;25.20;;;;;;5035642;28;20708;-82
2021/09/30 13:05:03;;;;;;;1.50;1.40;;;15.10;25.50;;;;;;5018779;28;20462;-82
2021/09/30 13:07:42;;;;;;;1.73;1.40;;;15.10;25.30;;;;;;5019012;28;20490;-82
2021/09/30 13:10:08;;;;;;;1.63;1.33;;;15.20;25.30;;;;;;5035396;28;21002;-83
2021/09/30 13:12:33;;;;;;;2.10;0.90;;;15.20;26.30;;;;;;5019162;28;20940;-83
2021/09/30 13:14:59;;;;;;;1.73;1.30;;;15.30;27.80;;;;;;5019875;28;21519;-83
2021/09/30 13:17:30;;;;;;;1.77;1.35;;;15.30;24.80;;;;;;5018350;28;20440;-82
2021/09/30 13:20:14;;;;;;;1.27;1.17;;;15.10;27.10;;;;;;5018648;28;20727;-83
2021/09/30 13:22:43;;;;;;;1.30;1.20;;;15.00;26.60;;;;;;5018591;28;20447;-83
2021/09/30 13:25:19;;;;;;;1.40;1.30;;;15.00;25.70;;;;;;5018352;28;20456;-83
2021/09/30 13:27:47;;;;;;;1.57;1.47;;;15.00;25.40;;;;;;5021373;28;20458;-83
2021/09/30 13:30:37;;;;;;;1.40;1.30;;;15.00;26.60;;;;;;5032397;28;20497;-85
2021/09/30 13:33:04;;;;;;;1.93;1.20;;;15.20;26.30;;;;;;5032408;28;20434;-85
2021/09/30 13:35:32;;;;;;;2.67;2.43;;;15.20;25.90;;;;;;5032285;28;20434;-85
2021/09/30 13:37:59;;;;;;;4.37;1.23;;;15.20;26.20;;;;;;5032609;28;20420;-87
2021/09/30 13:40:25;;;;;;;2.00;1.80;;;15.30;25.70;;;;;;5032305;28;20435;-86
2021/09/30 13:42:51;;;;;;;2.77;1.63;;;15.30;25.40;;;;;;5032132;28;20423;-87
2021/09/30 13:45:19;;;;;;;1.60;1.20;;;15.40;24.50;;;;;;5033997;28;20466;-88
2021/09/30 13:47:45;;;;;;;1.90;1.60;;;15.40;25.20;;;;;;5029281;28;20441;-88
2021/09/30 13:50:16;;;;;;;1.60;1.50;;;15.50;25.50;;;;;;5030696;28;20504;-86
2021/09/30 13:52:43;;;;;;;2.53;1.50;;;15.50;25.20;;;;;;5031513;28;20439;-86
2021/09/30 13:55:10;;;;;;;1.53;1.00;;;15.40;25.20;;;;;;5031593;28;20514;-86
2021/09/30 13:57:35;;;;;;;1.30;1.20;;;15.40;23.80;;;;;;5031543;28;20428;-86
2021/09/30 14:00:09;;;;;;;1.10;1.10;;;15.40;24.30;;;;;;5030779;28;20492;-85
2021/09/30 14:02:36;;;;;;;1.23;1.17;;;15.30;24.50;;;;;;5031568;28;20180;-85
2021/09/30 14:05:07;;;;;;;1.47;1.30;;;15.40;25.10;;;;;;5031319;28;20987;-84
2021/09/30 14:07:35;;;;;;;1.37;0.90;;;15.30;24.50;;;;;;5031200;28;20411;-84
2021/09/30 14:10:05;;;;;;;1.93;1.20;;;15.40;24.90;;;;;;5031468;28;20911;-85
2021/09/30 14:12:31;;;;;;;1.40;1.10;;;15.40;24.10;;;;;;5031786;28;20450;-85
2021/09/30 14:14:58;;;;;;;2.47;1.40;;;15.40;24.30;;;;;;5031948;28;20465;-85
2021/09/30 14:17:23;;;;;;;1.20;1.10;;;15.30;24.80;;;;;;5031543;28;21117;-84
2021/09/30 14:19:49;;;;;;;1.27;1.17;;;15.30;25.00;;;;;;5031957;28;20419;-85
2021/09/30 14:22:15;;;;;;;1.67;0.93;;;15.30;25.40;;;;;;5031892;28;20187;-84
2021/09/30 14:24:40;;;;;;;1.50;1.40;;;15.30;24.60;;;;;;5031385;28;20239;-84
2021/09/30 14:27:07;;;;;;;2.43;1.53;;;15.20;26.00;;;;;;5031261;28;20520;-85
2021/09/30 14:29:33;;;;;;;1.20;1.20;;;15.30;25.80;;;;;;5032733;28;20172;-86
2021/09/30 14:31:59;;;;;;;1.47;1.20;;;15.20;26.00;;;;;;5031815;28;20418;-86
2021/09/30 14:34:25;;;;;;;1.70;1.60;;;15.30;25.10;;;;;;5032004;28;20451;-85
2021/09/30 14:36:51;;;;;;;2.53;1.30;;;15.40;24.90;;;;;;5031434;28;20854;-87
2021/09/30 14:39:17;;;;;;;7.53;1.70;;;15.40;25.30;;;;;;5031162;28;20439;-85
2021/09/30 14:41:43;;;;;;;3.67;1.30;;;15.50;25.30;;;;;;5030769;28;20548;-85
2021/09/30 14:44:09;;;;;;;1.40;1.30;;;15.50;25.10;;;;;;5030926;28;20200;-86
2021/09/30 14:46:35;;;;;;;2.27;1.60;;;15.40;25.00;;;;;;5030772;28;20443;-84
2021/09/30 14:49:00;;;;;;;6.43;4.33;;;15.30;24.50;;;;;;5030945;28;20454;-85
2021/09/30 14:51:26;;;;;;;1.70;1.57;;;15.30;25.20;;;;;;5030647;28;20550;-85
2021/09/30 14:53:52;;;;;;;1.50;1.40;;;15.30;25.40;;;;;;5032655;28;20176;-85
2021/09/30 14:56:18;;;;;;;1.83;1.73;;;15.30;24.60;;;;;;5035003;28;20173;-85
2021/09/30 14:58:44;;;;;;;4.03;2.10;;;15.20;25.30;;;;;;5034956;28;20523;-85
2021/09/30 15:01:10;;;;;;;1.43;1.33;;;15.20;26.00;;;;;;5034970;28;20469;-86
2021/09/30 15:03:36;;;;;;;1.57;1.40;;;15.20;26.70;;;;;;5034848;28;20228;-85
2021/09/30 15:06:02;;;;;;;2.00;1.50;;;15.20;25.50;;;;;;5034805;28;20455;-86
2021/09/30 15:08:28;;;;;;;1.73;1.30;;;15.30;25.90;;;;;;5034782;28;20700;-86
2021/09/30 15:10:53;;;;;;;1.97;1.20;;;15.20;25.30;;;;;;5034498;28;20454;-85
2021/09/30 15:13:19;;;;;;;1.73;1.47;;;15.30;24.90;;;;;;5034679;28;20227;-86
2021/09/30 15:15:45;;;;;;;2.50;1.93;;;15.20;26.10;;;;;;5034444;28;20177;-86
2021/09/30 15:18:22;;;;;;;5.43;1.27;;;15.10;26.70;;;;;;5034748;28;20176;-86
2021/09/30 15:23:31;;;;;;;1.73;1.30;;;15.10;24.90;;;;;;5035933;28;20596;-85
2021/09/30 15:25:57;;;;;;;2.40;1.00;;;15.20;25.90;;;;;;5034477;28;20528;-85
2021/09/30 15:28:25;;;;;;;1.40;1.30;;;15.10;27.10;;;;;;5034388;28;20173;-85
2021/09/30 15:30:54;;;;;;;4.20;1.47;;;15.20;25.90;;;;;;5034344;28;20218;-85
2021/09/30 15:33:20;;;;;;;1.07;0.97;;;15.20;25.80;;;;;;5034212;28;20415;-84
2021/09/30 15:35:46;;;;;;;4.50;2.30;;;15.20;26.20;;;;;;5034261;28;20422;-85
2021/09/30 15:38:12;;;;;;;3.10;2.03;;;15.10;25.80;;;;;;5033876;28;20854;-85
2021/09/30 15:40:38;;;;;;;1.90;1.47;;;15.20;26.20;;;;;;5034241;28;20664;-85
2021/09/30 15:43:04;;;;;;;2.30;1.33;;;15.10;26.40;;;;;;5033975;28;20864;-85
2021/09/30 15:45:31;;;;;;;1.10;1.00;;;15.10;26.20;;;;;;5034947;28;20503;-85
2021/09/30 15:47:57;;;;;;;2.40;1.20;;;15.10;26.70;;;;;;5036156;28;20198;-86
2021/09/30 15:50:23;;;;;;;1.20;1.10;;;15.10;26.70;;;;;;5034021;28;20906;-86
2021/09/30 15:52:50;;;;;;;1.73;1.50;;;15.20;26.80;;;;;;5033807;28;20196;-85